createdAt,value
2023-09-27T00:01:16.854Z,100322.78
2023-09-27T00:03:45.734Z,100321.97
2023-09-27T00:06:14.561Z,100318.53
2023-09-27T00:08:44.327Z,100319.41
2023-09-27T00:11:13.627Z,100319.38
2023-09-27T00:13:44.016Z,100319.41
2023-09-27T00:16:13.023Z,100316.06
2023-09-27T00:18:42.234Z,100314.28
2023-09-27T00:21:11.192Z,100326.31
2023-09-27T00:23:41.050Z,100326.31
2023-09-27T00:26:09.953Z,100321.13
2023-09-27T00:28:39.271Z,100326.34
2023-09-27T00:31:10.537Z,100322.06
2023-09-27T00:33:39.450Z,100328.22
2023-09-27T00:36:08.431Z,100312.78
2023-09-27T00:38:37.750Z,100317.97
2023-09-27T00:41:07.670Z,100316.25
2023-09-27T00:43:36.991Z,100323.09
2023-09-27T00:46:10.040Z,100317.09
2023-09-27T00:48:39.473Z,100320.63
2023-09-27T00:51:08.615Z,100314.66
2023-09-27T00:53:40.811Z,100313.00
2023-09-27T00:56:11.412Z,100309.63
2023-09-27T00:58:41.057Z,100310.44
2023-09-27T01:01:12.049Z,100318.16
2023-09-27T01:03:41.147Z,100315.59
2023-09-27T01:06:10.150Z,100316.53
2023-09-27T01:08:39.065Z,100307.91
2023-09-27T01:11:08.384Z,100312.25
2023-09-27T01:13:37.351Z,100313.19
2023-09-27T01:16:06.608Z,100313.16
2023-09-27T01:18:36.861Z,100309.72
2023-09-27T01:21:05.821Z,100308.06
2023-09-27T01:23:38.674Z,100306.44
2023-09-27T01:26:10.072Z,100301.34
2023-09-27T01:28:43.132Z,100292.75
2023-09-27T01:31:12.054Z,100297.94
2023-09-27T01:33:40.940Z,100301.41
2023-09-27T01:36:09.923Z,100306.59
2023-09-27T01:38:40.601Z,100301.44
2023-09-27T01:41:09.690Z,100304.84
2023-09-27T01:43:38.585Z,100306.56
2023-09-27T01:46:07.484Z,100304.81
2023-09-27T01:48:36.372Z,100301.34
2023-09-27T01:51:05.479Z,100300.44
2023-09-27T01:53:34.295Z,100291.03
2023-09-27T01:56:06.291Z,100294.38
2023-09-27T01:58:35.357Z,100289.25
2023-09-27T02:01:05.013Z,100291.78
2023-09-27T02:03:34.363Z,100294.38
2023-09-27T02:06:03.261Z,100293.50
2023-09-27T02:08:32.495Z,100291.03
2023-09-27T02:11:01.605Z,100294.44
2023-09-27T02:13:32.122Z,100291.97
2023-09-27T02:16:01.105Z,100296.28
2023-09-27T02:18:30.073Z,100296.31
2023-09-27T02:20:58.980Z,100310.03
2023-09-27T02:23:28.553Z,100308.34
2023-09-27T02:26:00.231Z,100304.06
2023-09-27T02:28:29.113Z,100308.34
2023-09-27T02:31:00.371Z,100308.38
2023-09-27T02:33:29.924Z,100310.06
2023-09-27T02:35:59.881Z,100303.25
2023-09-27T02:38:28.869Z,100311.81
2023-09-27T02:40:58.174Z,100303.25
2023-09-27T02:43:27.079Z,100298.16
2023-09-27T02:45:56.110Z,100294.72
2023-09-27T02:48:26.812Z,100299.81
2023-09-27T02:50:56.745Z,100294.69
2023-09-27T02:53:25.793Z,100289.50
2023-09-27T02:55:54.631Z,100291.25
2023-09-27T02:58:24.845Z,100284.44
2023-09-27T03:00:54.023Z,100282.69
2023-09-27T03:03:22.968Z,100277.53
2023-09-27T03:05:53.469Z,100280.94
2023-09-27T03:08:22.390Z,100283.50
2023-09-27T03:10:51.284Z,100284.38
2023-09-27T03:13:20.924Z,100284.38
2023-09-27T03:15:58.034Z,100281.81
2023-09-27T03:18:27.874Z,100286.97
2023-09-27T03:20:58.219Z,100285.25
2023-09-27T03:23:27.283Z,100288.72
2023-09-27T03:25:58.004Z,100277.56
2023-09-27T03:28:27.038Z,100274.97
2023-09-27T03:30:56.293Z,100274.97
2023-09-27T03:33:25.302Z,100273.28
2023-09-27T03:35:54.598Z,100280.13
2023-09-27T03:38:28.660Z,100287.84
2023-09-27T03:40:57.640Z,100281.78
2023-09-27T03:43:26.563Z,100280.94
2023-09-27T03:45:56.639Z,100274.94
2023-09-27T03:48:25.714Z,100277.47
2023-09-27T03:50:54.613Z,100275.84
2023-09-27T03:53:23.514Z,100272.41
2023-09-27T03:55:53.809Z,100268.09
2023-09-27T03:58:23.478Z,100274.16
2023-09-27T04:00:52.329Z,100275.00
2023-09-27T04:03:21.616Z,100274.16
2023-09-27T04:05:50.693Z,100276.78
2023-09-27T04:08:19.475Z,100280.22
2023-09-27T04:10:48.536Z,100280.28
2023-09-27T04:13:18.704Z,100276.03
2023-09-27T04:15:51.243Z,100280.28
2023-09-27T04:18:20.412Z,100271.75
2023-09-27T04:20:49.365Z,100278.66
2023-09-27T04:23:18.656Z,100280.28
2023-09-27T04:25:47.520Z,100282.88
2023-09-27T04:28:16.462Z,100284.59
2023-09-27T04:30:46.675Z,100287.19
2023-09-27T04:33:17.038Z,100296.63
2023-09-27T04:35:46.024Z,100295.78
2023-09-27T04:38:16.491Z,100299.25
2023-09-27T04:40:45.402Z,100297.56
2023-09-27T04:43:14.126Z,100302.72
2023-09-27T04:45:43.215Z,100307.00
2023-09-27T04:48:13.825Z,100300.13
2023-09-27T04:50:42.951Z,100306.03
2023-09-27T04:53:11.788Z,100306.00
2023-09-27T04:55:41.045Z,100311.97
2023-09-27T04:58:09.813Z,100311.16
2023-09-27T05:00:38.757Z,100311.94
2023-09-27T05:03:08.868Z,100317.06
2023-09-27T05:05:39.330Z,100320.50
2023-09-27T05:08:08.239Z,100317.06
2023-09-27T05:10:37.506Z,100318.75
2023-09-27T05:13:06.775Z,100322.19
2023-09-27T05:15:35.641Z,100328.16
2023-09-27T05:18:04.536Z,100331.63
2023-09-27T05:20:33.573Z,100336.75
2023-09-27T05:23:03.857Z,100333.25
2023-09-27T05:25:33.164Z,100340.97
2023-09-27T05:28:01.868Z,100335.81
2023-09-27T05:30:30.678Z,100339.19
2023-09-27T05:32:59.753Z,100346.81
2023-09-27T05:35:28.868Z,100349.34
2023-09-27T05:37:58.812Z,100352.69
2023-09-27T05:40:29.277Z,100350.88
2023-09-27T05:42:59.838Z,100352.53
2023-09-27T05:45:30.307Z,100343.75
2023-09-27T05:47:59.142Z,100344.53
2023-09-27T05:50:28.107Z,100350.44
2023-09-27T05:52:57.680Z,100346.09
2023-09-27T05:55:27.455Z,100353.75
2023-09-27T05:57:57.212Z,100358.84
2023-09-27T06:00:28.625Z,100360.41
2023-09-27T06:02:57.645Z,100362.91
2023-09-27T06:05:26.556Z,100358.53
2023-09-27T06:07:55.409Z,100361.81
2023-09-27T06:10:24.242Z,100362.53
2023-09-27T06:12:53.037Z,100363.25
2023-09-27T06:15:23.420Z,100370.78
2023-09-27T06:17:52.973Z,100369.88
2023-09-27T06:20:24.593Z,100366.25
2023-09-27T06:22:55.028Z,100376.44
2023-09-27T06:25:30.388Z,100374.59
2023-09-27T06:27:59.372Z,100374.38
2023-09-27T06:30:29.962Z,100366.47
2023-09-27T06:32:59.103Z,100377.50
2023-09-27T06:35:28.082Z,100375.59
2023-09-27T06:37:56.942Z,100378.94
2023-09-27T06:40:26.468Z,100377.09
2023-09-27T06:42:56.112Z,100382.97
2023-09-27T06:45:25.322Z,100387.16
2023-09-27T06:47:57.527Z,100393.03
2023-09-27T06:50:26.690Z,100384.28
2023-09-27T06:53:10.728Z,100390.06
2023-09-27T06:55:46.104Z,100389.75
2023-09-27T06:58:16.096Z,100381.84
2023-09-27T07:00:45.048Z,100392.06
2023-09-27T07:03:15.428Z,100387.59
2023-09-27T07:05:44.394Z,100390.78
2023-09-27T07:08:13.096Z,100385.44
2023-09-27T07:10:42.711Z,100394.75
2023-09-27T07:13:11.139Z,100401.38
2023-09-27T07:15:39.976Z,100405.53
2023-09-27T07:18:09.494Z,100404.44
2023-09-27T07:20:41.695Z,100401.63
2023-09-27T07:23:16.488Z,100398.03
2023-09-27T07:25:46.064Z,100397.84
2023-09-27T07:28:14.742Z,100402.69
2023-09-27T07:30:43.677Z,100408.50
2023-09-27T07:33:13.252Z,100399.59
2023-09-27T07:35:45.534Z,100412.31
2023-09-27T07:38:15.476Z,100412.00
2023-09-27T07:40:48.111Z,100407.41
2023-09-27T07:43:17.514Z,100408.84
2023-09-27T07:45:48.719Z,100406.94
2023-09-27T07:48:22.811Z,100406.72
2023-09-27T07:50:54.871Z,100402.88
2023-09-27T07:53:23.885Z,100403.31
2023-09-27T07:55:55.480Z,100402.06
2023-09-27T07:58:24.374Z,100406.91
2023-09-27T08:00:53.152Z,100404.09
2023-09-27T08:03:23.565Z,100408.09
2023-09-27T08:05:54.431Z,100409.50
2023-09-27T08:08:25.105Z,100401.28
2023-09-27T08:10:54.296Z,100409.56
2023-09-27T08:13:22.949Z,100404.97
2023-09-27T08:15:51.821Z,100406.47
2023-09-27T08:18:21.160Z,100410.59
2023-09-27T08:20:50.069Z,100410.31
2023-09-27T08:23:20.353Z,100409.03
2023-09-27T08:25:49.357Z,100405.91
2023-09-27T08:28:18.646Z,100417.47
2023-09-27T08:30:48.610Z,100410.91
2023-09-27T08:33:17.588Z,100409.78
2023-09-27T08:35:47.155Z,100409.34
2023-09-27T08:38:15.883Z,100409.91
2023-09-27T08:40:48.496Z,100405.13
2023-09-27T08:43:17.808Z,100407.25
2023-09-27T08:45:48.836Z,100406.16
2023-09-27T08:48:21.935Z,100401.41
2023-09-27T08:50:52.490Z,100413.28
2023-09-27T08:53:21.398Z,100404.50
2023-09-27T08:55:54.499Z,100407.50
2023-09-27T08:58:28.995Z,100409.03
2023-09-27T09:00:58.630Z,100400.94
2023-09-27T09:03:28.262Z,100399.00
2023-09-27T09:05:58.079Z,100400.25
2023-09-27T09:08:42.641Z,100394.75
2023-09-27T09:11:18.113Z,100398.69
2023-09-27T09:13:58.695Z,100388.84
2023-09-27T09:16:27.621Z,100395.22
2023-09-27T09:18:59.154Z,100400.81
2023-09-27T09:21:29.831Z,100383.72
2023-09-27T09:23:58.740Z,100394.53
2023-09-27T09:26:31.141Z,100389.78
2023-09-27T09:29:01.908Z,100394.56
2023-09-27T09:31:35.041Z,100394.31
2023-09-27T09:34:05.823Z,100396.56
2023-09-27T09:36:37.375Z,100398.41
2023-09-27T09:39:08.169Z,100394.72
2023-09-27T09:41:50.030Z,100394.88
2023-09-27T09:44:21.301Z,100397.97
2023-09-27T09:46:51.160Z,100398.25
2023-09-27T09:49:20.193Z,100396.84
2023-09-27T09:51:50.241Z,100388.69
2023-09-27T09:54:29.458Z,100388.72
2023-09-27T09:57:09.073Z,100387.13
2023-09-27T09:59:52.366Z,100388.53
2023-09-27T10:02:24.771Z,100392.59
2023-09-27T10:04:57.842Z,100400.97
2023-09-27T10:07:28.382Z,100394.63
2023-09-27T10:09:59.595Z,100391.81
2023-09-27T10:12:30.347Z,100388.91
2023-09-27T10:14:59.988Z,100385.50
2023-09-27T10:17:31.992Z,100385.03
2023-09-27T10:20:13.733Z,100386.03
2023-09-27T10:22:44.459Z,100383.00
2023-09-27T10:25:34.468Z,100383.19
2023-09-27T10:28:13.636Z,100383.19
2023-09-27T10:31:05.799Z,100378.22
2023-09-27T10:33:35.833Z,100374.38
2023-09-27T10:36:25.288Z,100373.75
2023-09-27T10:39:07.062Z,100371.53
2023-09-27T10:41:47.962Z,100363.72
2023-09-27T10:44:31.729Z,100366.28
2023-09-27T10:47:02.411Z,100360.06
2023-09-27T10:49:39.249Z,100359.31
2023-09-27T10:52:18.711Z,100362.09
2023-09-27T10:54:48.290Z,100352.75
2023-09-27T10:57:17.775Z,100351.81
2023-09-27T10:59:52.264Z,100347.53
2023-09-27T11:02:31.126Z,100343.75
2023-09-27T11:05:00.126Z,100338.16
2023-09-27T11:07:44.623Z,100334.50
2023-09-27T11:10:13.572Z,100327.09
2023-09-27T11:12:42.314Z,100327.38
2023-09-27T11:15:14.213Z,100338.53
2023-09-27T11:17:43.161Z,100336.66
2023-09-27T11:20:13.288Z,100331.59
2023-09-27T11:22:42.600Z,100334.50
2023-09-27T11:25:29.368Z,100327.66
2023-09-27T11:27:58.347Z,100328.13
2023-09-27T11:30:33.611Z,100319.03
2023-09-27T11:33:06.705Z,100315.63
2023-09-27T11:35:37.385Z,100314.84
2023-09-27T11:38:08.819Z,100311.78
2023-09-27T11:40:39.437Z,100308.97
2023-09-27T11:43:08.721Z,100309.53
2023-09-27T11:45:56.454Z,100305.06
2023-09-27T11:48:34.566Z,100299.59
2023-09-27T11:51:04.000Z,100298.31
2023-09-27T11:53:32.830Z,100302.09
2023-09-27T11:56:02.667Z,100291.28
2023-09-27T11:58:31.377Z,100300.41
2023-09-27T12:01:01.699Z,100283.81
2023-09-27T12:03:30.738Z,100284.88
2023-09-27T12:06:00.407Z,100283.00
2023-09-27T12:08:29.552Z,100273.38
2023-09-27T12:11:00.892Z,100287.25
2023-09-27T12:13:30.055Z,100278.81
2023-09-27T12:15:58.544Z,100277.06
2023-09-27T12:18:28.690Z,100275.44
2023-09-27T12:20:58.004Z,100273.56
2023-09-27T12:23:27.040Z,100270.09
2023-09-27T12:25:56.951Z,100265.56
2023-09-27T12:28:27.265Z,100258.28
2023-09-27T12:30:56.161Z,100261.09
2023-09-27T12:33:26.137Z,100257.13
2023-09-27T12:35:56.569Z,100258.81
2023-09-27T12:38:26.273Z,100258.91
2023-09-27T12:40:55.447Z,100249.75
2023-09-27T12:43:24.457Z,100249.31
2023-09-27T12:45:53.073Z,100246.13
2023-09-27T12:48:22.078Z,100245.19
2023-09-27T12:50:51.118Z,100246.81
2023-09-27T12:53:21.567Z,100237.53
2023-09-27T12:55:50.609Z,100238.78
2023-09-27T12:58:19.338Z,100241.28
2023-09-27T13:00:48.292Z,100233.75
2023-09-27T13:03:17.190Z,100230.63
2023-09-27T13:05:46.123Z,100234.25
2023-09-27T13:08:14.997Z,100241.28
2023-09-27T13:10:45.016Z,100221.06
2023-09-27T13:13:13.885Z,100226.56
2023-09-27T13:15:42.707Z,100228.75
2023-09-27T13:18:11.616Z,100232.84
2023-09-27T13:20:40.475Z,100220.63
2023-09-27T13:23:09.403Z,100225.00
2023-09-27T13:25:38.260Z,100221.44
2023-09-27T13:28:08.679Z,100219.50
2023-09-27T13:30:37.951Z,100218.78
2023-09-27T13:33:06.931Z,100216.47
2023-09-27T13:35:37.155Z,100209.31
2023-09-27T13:38:07.795Z,100212.81
2023-09-27T13:40:37.422Z,100207.00
2023-09-27T13:43:08.058Z,100197.94
2023-09-27T13:45:37.615Z,100197.94
2023-09-27T13:48:08.301Z,100195.28
2023-09-27T13:50:37.325Z,100189.50
2023-09-27T13:53:06.342Z,100185.72
2023-09-27T13:55:35.333Z,100190.81
2023-09-27T13:58:04.768Z,100186.41
2023-09-27T14:00:35.297Z,100182.88
2023-09-27T14:03:04.250Z,100187.50
2023-09-27T14:05:33.268Z,100174.53
2023-09-27T14:08:02.000Z,100178.03
2023-09-27T14:10:30.883Z,100178.88
2023-09-27T14:13:01.313Z,100170.47
2023-09-27T14:15:30.579Z,100168.88
2023-09-27T14:18:01.179Z,100162.25
2023-09-27T14:20:30.290Z,100165.38
2023-09-27T14:22:59.819Z,100158.84
2023-09-27T14:25:28.870Z,100159.50
2023-09-27T14:27:59.125Z,100155.75
2023-09-27T14:30:28.124Z,100154.47
2023-09-27T14:38:04.566Z,100141.59
2023-09-27T14:40:33.507Z,100139.38
2023-09-27T14:43:02.222Z,100143.13
2023-09-27T14:45:32.879Z,100140.50
2023-09-27T14:48:03.187Z,100133.75
2023-09-27T14:50:33.791Z,100137.16
2023-09-27T14:53:02.724Z,100141.13
2023-09-27T14:55:31.681Z,100143.59
2023-09-27T14:58:01.025Z,100137.84
2023-09-27T15:00:32.923Z,100140.53
2023-09-27T15:03:02.117Z,100135.25
2023-09-27T15:05:30.936Z,100133.16
2023-09-27T15:08:01.311Z,100132.66
2023-09-27T15:10:30.184Z,100133.91
2023-09-27T15:12:59.088Z,100131.34
2023-09-27T15:15:28.155Z,100134.06
2023-09-27T15:17:56.893Z,100129.13
2023-09-27T15:20:25.823Z,100127.03
2023-09-27T15:22:55.284Z,100128.53
2023-09-27T15:25:25.806Z,100127.34
2023-09-27T15:27:56.173Z,100127.28
2023-09-27T15:30:24.960Z,100127.19
2023-09-27T15:32:53.820Z,100121.63
2023-09-27T15:35:22.842Z,100126.09
2023-09-27T15:37:55.620Z,100120.66
2023-09-27T15:40:26.025Z,100121.84
2023-09-27T15:42:57.007Z,100124.00
2023-09-27T15:45:25.829Z,100129.41
2023-09-27T15:47:55.256Z,100127.22
2023-09-27T15:50:24.239Z,100131.09
2023-09-27T15:52:53.123Z,100123.06
2023-09-27T15:55:22.183Z,100127.41
2023-09-27T15:57:53.139Z,100123.50
2023-09-27T16:00:22.185Z,100121.06
2023-09-27T16:02:50.932Z,100111.72
2023-09-27T16:05:19.814Z,100117.84
2023-09-27T16:07:48.675Z,100118.53
2023-09-27T16:10:17.532Z,100125.09
2023-09-27T16:12:46.398Z,100114.41
2023-09-27T16:15:16.714Z,100121.19
2023-09-27T16:17:45.582Z,100120.94
2023-09-27T16:20:14.349Z,100125.03
2023-09-27T16:22:43.231Z,100112.34
2023-09-27T16:25:12.336Z,100121.28
2023-09-27T16:27:41.297Z,100123.63
2023-09-27T16:30:12.839Z,100121.22
2023-09-27T16:32:44.988Z,100114.03
2023-09-27T16:35:14.308Z,100114.56
2023-09-27T16:37:43.254Z,100113.16
2023-09-27T16:40:13.029Z,100116.16
2023-09-27T16:42:42.011Z,100107.97
2023-09-27T16:45:11.647Z,100114.38
2023-09-27T16:47:40.969Z,100119.44
2023-09-27T16:50:13.436Z,100115.50
2023-09-27T16:52:42.388Z,100117.22
2023-09-27T16:55:12.524Z,100117.34
2023-09-27T16:57:41.719Z,100114.63
2023-09-27T17:00:12.765Z,100115.13
2023-09-27T17:02:42.691Z,100116.63
2023-09-27T17:05:13.936Z,100120.25
2023-09-27T17:07:42.781Z,100118.25
2023-09-27T17:10:13.507Z,100125.50
2023-09-27T17:12:42.747Z,100125.78
2023-09-27T17:15:12.791Z,100122.63
2023-09-27T17:17:41.806Z,100124.03
2023-09-27T17:20:11.707Z,100122.13
2023-09-27T17:22:41.936Z,100124.22
2023-09-27T17:25:12.681Z,100123.84
2023-09-27T17:27:41.673Z,100123.19
2023-09-27T17:30:11.358Z,100119.13
2023-09-27T17:32:40.563Z,100127.25
2023-09-27T17:35:11.595Z,100122.31
2023-09-27T17:37:41.916Z,100127.81
2023-09-27T17:40:11.347Z,100125.41
2023-09-27T17:42:40.100Z,100130.91
2023-09-27T17:45:10.177Z,100125.09
2023-09-27T17:47:39.042Z,100128.81
2023-09-27T17:50:09.370Z,100120.44
2023-09-27T17:52:38.224Z,100125.72
2023-09-27T17:55:09.785Z,100124.94
2023-09-27T17:57:38.652Z,100127.53
2023-09-27T18:00:10.105Z,100127.59
2023-09-27T18:02:39.207Z,100130.25
2023-09-27T18:05:08.880Z,100139.81
2023-09-27T18:07:37.700Z,100125.31
2023-09-27T18:10:09.312Z,100129.84
2023-09-27T18:12:38.053Z,100133.56
2023-09-27T18:15:21.238Z,100130.28
2023-09-27T18:17:54.764Z,100135.78
2023-09-27T18:20:23.720Z,100133.56
2023-09-27T18:22:52.791Z,100135.19
2023-09-27T18:25:23.303Z,100130.31
2023-09-27T18:27:52.137Z,100129.78
2023-09-27T18:30:22.078Z,100130.78
2023-09-27T18:32:50.947Z,100133.38
2023-09-27T18:35:20.073Z,100136.94
2023-09-27T18:37:48.892Z,100140.63
2023-09-27T18:40:20.229Z,100149.41
2023-09-27T18:42:50.549Z,100140.91
2023-09-27T18:45:20.937Z,100143.72
2023-09-27T18:47:51.995Z,100149.84
2023-09-27T18:50:22.061Z,100136.97
2023-09-27T18:52:51.792Z,100141.38
2023-09-27T18:55:20.684Z,100137.34
2023-09-27T18:57:50.927Z,100144.47
2023-09-27T19:00:19.864Z,100141.94
2023-09-27T19:02:49.168Z,100141.94
2023-09-27T19:05:17.911Z,100137.88
2023-09-27T19:07:46.728Z,100149.28
2023-09-27T19:10:15.724Z,100141.78
2023-09-27T19:12:44.457Z,100146.19
2023-09-27T19:15:14.883Z,100147.13
2023-09-27T19:17:43.869Z,100148.22
2023-09-27T19:20:13.122Z,100153.59
2023-09-27T19:22:42.079Z,100145.97
2023-09-27T19:25:11.048Z,100143.72
2023-09-27T19:27:39.918Z,100149.94
2023-09-27T19:30:10.017Z,100144.91
2023-09-27T19:32:40.718Z,100145.75
2023-09-27T19:35:10.269Z,100147.47
2023-09-27T19:37:38.713Z,100143.16
2023-09-27T19:40:11.168Z,100148.41
2023-09-27T19:42:41.524Z,100142.38
2023-09-27T19:45:11.499Z,100144.16
2023-09-27T19:47:42.024Z,100141.59
2023-09-27T19:50:11.258Z,100138.19
2023-09-27T19:52:41.125Z,100151.25
2023-09-27T19:55:11.349Z,100146.94
2023-09-27T19:57:40.258Z,100145.16
2023-09-27T20:00:18.671Z,100149.75
2023-09-27T20:02:50.360Z,100149.16
2023-09-27T20:05:19.363Z,100153.41
2023-09-27T20:07:49.539Z,100156.00
2023-09-27T20:10:18.592Z,100157.72
2023-09-27T20:12:47.464Z,100157.06
2023-09-27T20:15:16.472Z,100153.75
2023-09-27T20:17:45.277Z,100148.75
2023-09-27T20:20:15.704Z,100154.00
2023-09-27T20:22:44.884Z,100154.16
2023-09-27T20:25:13.972Z,100155.88
2023-09-27T20:27:43.459Z,100155.25
2023-09-27T20:30:13.507Z,100156.97
2023-09-27T20:32:42.887Z,100156.97
2023-09-27T20:35:12.088Z,100159.44
2023-09-27T20:37:43.165Z,100159.59
2023-09-27T20:40:13.194Z,100166.50
2023-09-27T20:42:42.145Z,100165.72
2023-09-27T20:45:11.604Z,100158.84
2023-09-27T20:47:40.297Z,100159.06
2023-09-27T20:50:12.397Z,100164.31
2023-09-27T20:52:42.840Z,100157.59
2023-09-27T20:55:12.227Z,100159.38
2023-09-27T20:57:41.690Z,100165.44
2023-09-27T21:00:11.953Z,100160.38
2023-09-27T21:02:42.171Z,100164.00
2023-09-27T21:05:11.292Z,100157.31
2023-09-27T21:07:40.288Z,100159.06
2023-09-27T21:10:10.966Z,100159.16
2023-09-27T21:12:39.776Z,100164.31
2023-09-27T21:15:09.701Z,100164.31
2023-09-27T21:17:38.526Z,100157.59
2023-09-27T21:20:08.622Z,100164.47
2023-09-27T21:22:37.537Z,100160.13
2023-09-27T21:25:07.305Z,100167.91
2023-09-27T21:27:38.043Z,100162.03
2023-09-27T21:30:09.136Z,100168.22
2023-09-27T21:32:38.197Z,100162.22
2023-09-27T21:35:08.345Z,100173.31
2023-09-27T21:37:37.623Z,100160.38
2023-09-27T21:40:08.164Z,100164.72
2023-09-27T21:42:38.510Z,100162.88
2023-09-27T21:45:09.354Z,100158.72
2023-09-27T21:47:38.308Z,100160.50
2023-09-27T21:50:08.470Z,100161.56
2023-09-27T21:52:37.573Z,100160.69
2023-09-27T21:55:07.818Z,100157.31
2023-09-27T21:57:38.848Z,100165.09
2023-09-27T22:00:21.482Z,100156.63
2023-09-27T22:02:50.491Z,100159.31
2023-09-27T22:05:20.943Z,100155.06
2023-09-27T22:07:50.030Z,100152.63
2023-09-27T22:10:20.089Z,100151.75
2023-09-27T22:12:53.737Z,100147.47
2023-09-27T22:15:25.041Z,100151.75
2023-09-27T22:17:56.195Z,100143.34
2023-09-27T22:20:25.222Z,100148.81
2023-09-27T22:22:54.595Z,100150.50
2023-09-27T22:25:26.977Z,100158.56
2023-09-27T22:27:58.810Z,100142.19
2023-09-27T22:30:27.706Z,100161.09
2023-09-27T22:33:04.709Z,100149.84
2023-09-27T22:35:34.018Z,100155.81
2023-09-27T22:38:09.780Z,100145.69
2023-09-27T22:40:38.707Z,100147.41
2023-09-27T22:43:14.533Z,100152.63
2023-09-27T22:45:44.011Z,100151.94
2023-09-27T22:48:15.127Z,100140.88
2023-09-27T22:50:49.129Z,100149.34
2023-09-27T22:53:19.926Z,100144.09
2023-09-27T22:55:52.338Z,100147.59
2023-09-27T22:58:23.455Z,100146.66
2023-09-27T23:00:59.033Z,100147.44
2023-09-27T23:03:30.935Z,100149.34
2023-09-27T23:06:03.258Z,100143.44
2023-09-27T23:08:39.327Z,100146.78
2023-09-27T23:11:10.739Z,100143.22
2023-09-27T23:13:49.911Z,100144.88
2023-09-27T23:16:29.628Z,100142.41
2023-09-27T23:19:02.057Z,100138.16
2023-09-27T23:21:33.450Z,100138.22
2023-09-27T23:24:24.253Z,100138.22
2023-09-27T23:27:04.925Z,100135.53
2023-09-27T23:29:38.046Z,100126.09
2023-09-27T23:32:19.254Z,100134.03
2023-09-27T23:34:49.722Z,100135.00
2023-09-27T23:37:19.873Z,100132.50
2023-09-27T23:39:49.551Z,100132.56
2023-09-27T23:42:24.793Z,100139.44
2023-09-27T23:44:56.700Z,100134.38
2023-09-27T23:47:26.310Z,100136.28
2023-09-27T23:49:58.566Z,100138.03
2023-09-27T23:52:30.272Z,100134.59
2023-09-27T23:55:03.975Z,100130.41
2023-09-27T23:57:33.956Z,100127.00
